sensor_id;sensor_type;location;lat;lon;timestamp;pressure;altitude;pressure_sealevel;temperature;humidity
75788;BME280;64406;50.024;14.492;2023-01-23T00:02:19;99404.69;;;-0.30;83.86
75788;BME280;64406;50.024;14.492;2023-01-23T00:04:45;99406.09;;;-0.42;84.21
75788;BME280;64406;50.024;14.492;2023-01-23T00:07:11;99420.88;;;-0.48;84.36
75788;BME280;64406;50.024;14.492;2023-01-23T00:09:37;99417.94;;;-0.53;84.88
75788;BME280;64406;50.024;14.492;2023-01-23T00:12:04;99421.69;;;-0.47;84.39
75788;BME280;64406;50.024;14.492;2023-01-23T00:14:29;99431.47;;;-0.48;84.75
75788;BME280;64406;50.024;14.492;2023-01-23T00:16:55;99420.06;;;-0.48;84.73
75788;BME280;64406;50.024;14.492;2023-01-23T00:19:21;99423.44;;;-0.40;84.31
75788;BME280;64406;50.024;14.492;2023-01-23T00:21:46;99425.63;;;-0.43;84.30
75788;BME280;64406;50.024;14.492;2023-01-23T00:24:12;99417.69;;;-0.43;84.62
75788;BME280;64406;50.024;14.492;2023-01-23T00:26:38;99425.66;;;-0.29;83.92
75788;BME280;64406;50.024;14.492;2023-01-23T00:29:04;99427.41;;;-0.36;84.00
75788;BME280;64406;50.024;14.492;2023-01-23T00:31:34;99422.91;;;-0.35;84.00
75788;BME280;64406;50.024;14.492;2023-01-23T00:34:07;99431.44;;;-0.25;84.05
75788;BME280;64406;50.024;14.492;2023-01-23T00:36:35;99440.41;;;-0.26;84.03
75788;BME280;64406;50.024;14.492;2023-01-23T00:39:04;99438.72;;;-0.27;84.34
75788;BME280;64406;50.024;14.492;2023-01-23T00:41:31;99438.91;;;-0.29;84.25
75788;BME280;64406;50.024;14.492;2023-01-23T00:43:57;99451.63;;;-0.24;83.68
75788;BME280;64406;50.024;14.492;2023-01-23T00:46:23;99449.31;;;-0.27;83.69
75788;BME280;64406;50.024;14.492;2023-01-23T00:48:49;99450.44;;;-0.21;84.01
75788;BME280;64406;50.024;14.492;2023-01-23T00:51:15;99456.91;;;-0.24;83.46
75788;BME280;64406;50.024;14.492;2023-01-23T00:53:41;99451.97;;;-0.27;83.52
75788;BME280;64406;50.024;14.492;2023-01-23T00:56:07;99455.00;;;-0.15;83.50
75788;BME280;64406;50.024;14.492;2023-01-23T00:58:34;99459.47;;;-0.16;83.13
75788;BME280;64406;50.024;14.492;2023-01-23T01:00:59;99446.56;;;-0.34;83.24
75788;BME280;64406;50.024;14.492;2023-01-23T01:03:26;99455.31;;;-0.33;83.62
75788;BME280;64406;50.024;14.492;2023-01-23T01:05:51;99462.44;;;-0.34;84.00
75788;BME280;64406;50.024;14.492;2023-01-23T01:08:17;99461.09;;;-0.30;84.35
75788;BME280;64406;50.024;14.492;2023-01-23T01:10:43;99459.75;;;-0.25;84.20
75788;BME280;64406;50.024;14.492;2023-01-23T01:13:10;99454.78;;;-0.29;83.79
75788;BME280;64406;50.024;14.492;2023-01-23T01:15:36;99457.25;;;-0.27;84.12
75788;BME280;64406;50.024;14.492;2023-01-23T01:18:02;99458.25;;;-0.28;83.83
75788;BME280;64406;50.024;14.492;2023-01-23T01:20:30;99439.81;;;-0.36;84.03
75788;BME280;64406;50.024;14.492;2023-01-23T01:22:58;99457.03;;;-0.40;84.24
75788;BME280;64406;50.024;14.492;2023-01-23T01:25:25;99458.94;;;-0.49;84.19
75788;BME280;64406;50.024;14.492;2023-01-23T01:27:50;99458.00;;;-0.56;84.54
75788;BME280;64406;50.024;14.492;2023-01-23T01:30:17;99469.91;;;-0.60;85.12
75788;BME280;64406;50.024;14.492;2023-01-23T01:32:43;99450.75;;;-0.62;85.13
75788;BME280;64406;50.024;14.492;2023-01-23T01:35:10;99448.28;;;-0.64;84.97
75788;BME280;64406;50.024;14.492;2023-01-23T01:37:37;99448.00;;;-0.69;85.25
75788;BME280;64406;50.024;14.492;2023-01-23T01:40:05;99442.94;;;-0.78;85.71
75788;BME280;64406;50.024;14.492;2023-01-23T01:42:51;99453.47;;;-0.70;86.06
75788;BME280;64406;50.024;14.492;2023-01-23T01:48:24;99431.94;;;-0.90;86.37
75788;BME280;64406;50.024;14.492;2023-01-23T01:50:50;99442.06;;;-0.71;85.90
75788;BME280;64406;50.024;14.492;2023-01-23T01:53:16;99429.72;;;-0.78;85.87
75788;BME280;64406;50.024;14.492;2023-01-23T01:55:42;99425.38;;;-0.71;85.57
75788;BME280;64406;50.024;14.492;2023-01-23T01:58:08;99432.94;;;-0.68;85.57
75788;BME280;64406;50.024;14.492;2023-01-23T02:00:34;99430.28;;;-0.68;85.15
75788;BME280;64406;50.024;14.492;2023-01-23T02:03:01;99447.47;;;-0.64;85.85
75788;BME280;64406;50.024;14.492;2023-01-23T02:05:42;99454.75;;;-0.66;85.42
75788;BME280;64406;50.024;14.492;2023-01-23T02:10:39;99454.53;;;-0.57;85.41
75788;BME280;64406;50.024;14.492;2023-01-23T02:13:22;99456.53;;;-0.59;85.52
75788;BME280;64406;50.024;14.492;2023-01-23T02:15:49;99461.75;;;-0.50;85.10
75788;BME280;64406;50.024;14.492;2023-01-23T02:18:15;99463.59;;;-0.51;84.74
75788;BME280;64406;50.024;14.492;2023-01-23T02:20:41;99451.63;;;-0.47;85.31
75788;BME280;64406;50.024;14.492;2023-01-23T02:25:59;99441.09;;;-0.55;85.70
75788;BME280;64406;50.024;14.492;2023-01-23T02:28:45;99460.03;;;-0.43;84.93
75788;BME280;64406;50.024;14.492;2023-01-23T02:31:12;99455.22;;;-0.40;84.85
75788;BME280;64406;50.024;14.492;2023-01-23T02:36:06;99456.91;;;-0.47;84.39
75788;BME280;64406;50.024;14.492;2023-01-23T02:38:36;99469.75;;;-0.36;84.18
75788;BME280;64406;50.024;14.492;2023-01-23T02:41:06;99461.34;;;-0.39;84.53
75788;BME280;64406;50.024;14.492;2023-01-23T02:43:36;99480.50;;;-0.37;84.77
75788;BME280;64406;50.024;14.492;2023-01-23T02:46:04;99486.81;;;-0.38;84.65
75788;BME280;64406;50.024;14.492;2023-01-23T02:48:30;99475.44;;;-0.47;84.38
75788;BME280;64406;50.024;14.492;2023-01-23T02:50:56;99486.94;;;-0.32;84.69
75788;BME280;64406;50.024;14.492;2023-01-23T02:53:22;99487.97;;;-0.41;84.36
75788;BME280;64406;50.024;14.492;2023-01-23T02:55:48;99496.47;;;-0.45;84.57
75788;BME280;64406;50.024;14.492;2023-01-23T02:58:13;99470.28;;;-0.40;84.45
75788;BME280;64406;50.024;14.492;2023-01-23T03:00:57;99489.91;;;-0.35;84.44
75788;BME280;64406;50.024;14.492;2023-01-23T03:03:23;99496.44;;;-0.22;84.45
75788;BME280;64406;50.024;14.492;2023-01-23T03:05:49;99496.25;;;-0.21;83.93
75788;BME280;64406;50.024;14.492;2023-01-23T03:08:15;99492.78;;;-0.21;84.10
75788;BME280;64406;50.024;14.492;2023-01-23T03:10:40;99502.50;;;-0.14;83.95
75788;BME280;64406;50.024;14.492;2023-01-23T03:13:06;99486.34;;;-0.19;83.99
75788;BME280;64406;50.024;14.492;2023-01-23T03:15:34;99491.34;;;-0.24;84.38
75788;BME280;64406;50.024;14.492;2023-01-23T03:18:03;99485.03;;;-0.23;83.67
75788;BME280;64406;50.024;14.492;2023-01-23T03:20:29;99475.16;;;-0.29;83.63
75788;BME280;64406;50.024;14.492;2023-01-23T03:22:55;99483.38;;;-0.24;84.45
75788;BME280;64406;50.024;14.492;2023-01-23T03:25:21;99492.28;;;-0.17;83.87
75788;BME280;64406;50.024;14.492;2023-01-23T03:27:47;99480.38;;;-0.21;84.08
75788;BME280;64406;50.024;14.492;2023-01-23T03:30:14;99469.84;;;-0.29;83.96
75788;BME280;64406;50.024;14.492;2023-01-23T03:32:41;99468.50;;;-0.25;84.30
75788;BME280;64406;50.024;14.492;2023-01-23T03:35:09;99471.50;;;-0.28;84.34
75788;BME280;64406;50.024;14.492;2023-01-23T03:37:35;99481.38;;;-0.22;84.14
75788;BME280;64406;50.024;14.492;2023-01-23T03:40:02;99467.69;;;-0.25;84.62
75788;BME280;64406;50.024;14.492;2023-01-23T03:42:46;99476.56;;;-0.18;84.08
75788;BME280;64406;50.024;14.492;2023-01-23T03:45:13;99458.94;;;-0.26;84.54
75788;BME280;64406;50.024;14.492;2023-01-23T03:47:38;99478.38;;;-0.19;84.47
75788;BME280;64406;50.024;14.492;2023-01-23T03:50:04;99478.22;;;-0.17;84.36
75788;BME280;64406;50.024;14.492;2023-01-23T03:52:30;99485.25;;;-0.10;83.84
75788;BME280;64406;50.024;14.492;2023-01-23T03:54:56;99483.56;;;-0.25;84.04
75788;BME280;64406;50.024;14.492;2023-01-23T03:57:24;99485.56;;;-0.28;84.47
75788;BME280;64406;50.024;14.492;2023-01-23T03:59:49;99506.63;;;-0.11;84.51
75788;BME280;64406;50.024;14.492;2023-01-23T04:02:15;99495.22;;;-0.12;83.64
75788;BME280;64406;50.024;14.492;2023-01-23T04:04:41;99501.44;;;-0.05;84.02
75788;BME280;64406;50.024;14.492;2023-01-23T04:07:07;99497.97;;;-0.05;83.66
75788;BME280;64406;50.024;14.492;2023-01-23T04:09:33;99490.16;;;-0.21;84.15
75788;BME280;64406;50.024;14.492;2023-01-23T04:11:59;99494.09;;;-0.17;83.86
75788;BME280;64406;50.024;14.492;2023-01-23T04:14:25;99498.19;;;-0.15;84.20
75788;BME280;64406;50.024;14.492;2023-01-23T04:16:52;99509.91;;;-0.09;83.68
75788;BME280;64406;50.024;14.492;2023-01-23T04:19:18;99491.19;;;-0.08;83.69
75788;BME280;64406;50.024;14.492;2023-01-23T04:21:45;99506.44;;;-0.10;84.07
75788;BME280;64406;50.024;14.492;2023-01-23T04:24:11;99483.50;;;-0.17;84.03
75788;BME280;64406;50.024;14.492;2023-01-23T04:26:36;99491.03;;;-0.06;83.68
75788;BME280;64406;50.024;14.492;2023-01-23T04:29:03;99490.50;;;-0.24;83.81
75788;BME280;64406;50.024;14.492;2023-01-23T04:31:30;99479.50;;;-0.36;84.09
75788;BME280;64406;50.024;14.492;2023-01-23T04:33:56;99487.69;;;-0.46;84.81
75788;BME280;64406;50.024;14.492;2023-01-23T04:36:21;99486.41;;;-0.50;84.67
75788;BME280;64406;50.024;14.492;2023-01-23T04:38:47;99491.63;;;-0.42;85.04
75788;BME280;64406;50.024;14.492;2023-01-23T04:41:21;99483.00;;;-0.59;85.16
75788;BME280;64406;50.024;14.492;2023-01-23T04:43:47;99475.31;;;-0.76;85.73
75788;BME280;64406;50.024;14.492;2023-01-23T04:46:13;99470.25;;;-0.86;85.69
75788;BME280;64406;50.024;14.492;2023-01-23T04:48:38;99491.25;;;-0.85;86.33
75788;BME280;64406;50.024;14.492;2023-01-23T04:51:05;99469.16;;;-1.00;86.19
75788;BME280;64406;50.024;14.492;2023-01-23T04:53:31;99468.00;;;-1.28;86.95
75788;BME280;64406;50.024;14.492;2023-01-23T04:55:57;99476.84;;;-1.13;87.59
75788;BME280;64406;50.024;14.492;2023-01-23T04:58:23;99476.06;;;-1.22;87.16
75788;BME280;64406;50.024;14.492;2023-01-23T05:00:49;99470.31;;;-1.33;87.36
75788;BME280;64406;50.024;14.492;2023-01-23T05:03:16;99464.94;;;-1.48;87.39
75788;BME280;64406;50.024;14.492;2023-01-23T05:05:42;99472.91;;;-1.73;88.65
75788;BME280;64406;50.024;14.492;2023-01-23T05:08:11;99462.56;;;-1.99;88.34
75788;BME280;64406;50.024;14.492;2023-01-23T05:10:37;99477.75;;;-1.93;88.66
75788;BME280;64406;50.024;14.492;2023-01-23T05:13:04;99463.25;;;-2.13;89.02
75788;BME280;64406;50.024;14.492;2023-01-23T05:15:30;99479.75;;;-2.19;88.91
75788;BME280;64406;50.024;14.492;2023-01-23T05:17:56;99489.16;;;-2.25;89.27
75788;BME280;64406;50.024;14.492;2023-01-23T05:20:22;99482.41;;;-2.43;89.78
75788;BME280;64406;50.024;14.492;2023-01-23T05:22:49;99493.44;;;-2.48;89.88
75788;BME280;64406;50.024;14.492;2023-01-23T05:25:23;99496.72;;;-2.62;89.94
75788;BME280;64406;50.024;14.492;2023-01-23T05:27:49;99494.41;;;-2.74;89.44
75788;BME280;64406;50.024;14.492;2023-01-23T05:30:16;99502.78;;;-2.78;89.88
75788;BME280;64406;50.024;14.492;2023-01-23T05:32:42;99510.84;;;-2.80;90.51
75788;BME280;64406;50.024;14.492;2023-01-23T05:35:08;99517.78;;;-2.79;90.69
75788;BME280;64406;50.024;14.492;2023-01-23T05:37:34;99525.22;;;-2.74;90.74
75788;BME280;64406;50.024;14.492;2023-01-23T05:40:00;99529.47;;;-2.81;90.46
75788;BME280;64406;50.024;14.492;2023-01-23T05:42:25;99540.69;;;-2.79;90.95
75788;BME280;64406;50.024;14.492;2023-01-23T05:44:51;99540.16;;;-2.91;90.50
75788;BME280;64406;50.024;14.492;2023-01-23T05:47:17;99537.03;;;-2.86;90.50
75788;BME280;64406;50.024;14.492;2023-01-23T05:49:42;99534.88;;;-2.91;90.71
75788;BME280;64406;50.024;14.492;2023-01-23T05:52:10;99540.94;;;-2.98;90.94
75788;BME280;64406;50.024;14.492;2023-01-23T05:54:36;99538.13;;;-3.05;90.95
75788;BME280;64406;50.024;14.492;2023-01-23T05:57:02;99541.25;;;-3.10;90.85
75788;BME280;64406;50.024;14.492;2023-01-23T05:59:28;99540.91;;;-3.15;91.07
75788;BME280;64406;50.024;14.492;2023-01-23T06:01:54;99551.47;;;-3.07;91.25
75788;BME280;64406;50.024;14.492;2023-01-23T06:04:19;99529.19;;;-3.12;91.50
75788;BME280;64406;50.024;14.492;2023-01-23T06:06:45;99538.28;;;-3.07;91.44
75788;BME280;64406;50.024;14.492;2023-01-23T06:09:11;99554.94;;;-2.98;91.32
75788;BME280;64406;50.024;14.492;2023-01-23T06:11:37;99552.00;;;-2.95;91.65
75788;BME280;64406;50.024;14.492;2023-01-23T06:14:03;99544.75;;;-2.93;91.21
75788;BME280;64406;50.024;14.492;2023-01-23T06:16:29;99557.13;;;-2.93;91.36
75788;BME280;64406;50.024;14.492;2023-01-23T06:18:57;99552.13;;;-3.05;91.79
75788;BME280;64406;50.024;14.492;2023-01-23T06:21:22;99557.72;;;-3.08;92.18
75788;BME280;64406;50.024;14.492;2023-01-23T06:23:48;99544.16;;;-3.21;91.66
75788;BME280;64406;50.024;14.492;2023-01-23T06:26:14;99557.06;;;-3.10;91.32
75788;BME280;64406;50.024;14.492;2023-01-23T06:28:42;99566.06;;;-3.20;91.65
75788;BME280;64406;50.024;14.492;2023-01-23T06:31:08;99568.16;;;-3.24;91.77
75788;BME280;64406;50.024;14.492;2023-01-23T06:33:35;99563.69;;;-3.32;91.77
75788;BME280;64406;50.024;14.492;2023-01-23T06:36:03;99566.75;;;-3.44;91.33
75788;BME280;64406;50.024;14.492;2023-01-23T06:38:30;99579.78;;;-3.43;91.66
75788;BME280;64406;50.024;14.492;2023-01-23T06:40:59;99584.94;;;-3.33;91.33
75788;BME280;64406;50.024;14.492;2023-01-23T06:43:26;99585.78;;;-3.24;91.66
75788;BME280;64406;50.024;14.492;2023-01-23T06:45:52;99572.34;;;-3.13;91.58
75788;BME280;64406;50.024;14.492;2023-01-23T06:48:19;99582.94;;;-3.05;91.68
75788;BME280;64406;50.024;14.492;2023-01-23T06:50:49;99588.06;;;-3.04;91.29
75788;BME280;64406;50.024;14.492;2023-01-23T06:53:16;99593.06;;;-2.84;91.23
75788;BME280;64406;50.024;14.492;2023-01-23T06:55:42;99601.53;;;-2.64;91.36
75788;BME280;64406;50.024;14.492;2023-01-23T06:58:08;99583.50;;;-2.43;90.84
75788;BME280;64406;50.024;14.492;2023-01-23T07:00:34;99583.84;;;-2.30;90.94
75788;BME280;64406;50.024;14.492;2023-01-23T07:03:00;99597.38;;;-2.08;90.43
75788;BME280;64406;50.024;14.492;2023-01-23T07:05:31;99609.75;;;-1.93;90.43
75788;BME280;64406;50.024;14.492;2023-01-23T07:08:00;99608.94;;;-1.85;90.55
75788;BME280;64406;50.024;14.492;2023-01-23T07:10:26;99613.41;;;-1.69;90.19
75788;BME280;64406;50.024;14.492;2023-01-23T07:12:52;99604.16;;;-1.57;89.64
75788;BME280;64406;50.024;14.492;2023-01-23T07:15:17;99629.91;;;-1.43;89.56
75788;BME280;64406;50.024;14.492;2023-01-23T07:17:43;99621.28;;;-1.28;89.74
75788;BME280;64406;50.024;14.492;2023-01-23T07:20:09;99596.16;;;-1.16;88.88
75788;BME280;64406;50.024;14.492;2023-01-23T07:22:36;99590.34;;;-1.03;88.05
75788;BME280;64406;50.024;14.492;2023-01-23T07:25:02;99611.66;;;-1.05;88.47
75788;BME280;64406;50.024;14.492;2023-01-23T07:27:28;99613.94;;;-0.94;87.86
75788;BME280;64406;50.024;14.492;2023-01-23T07:29:54;99629.13;;;-0.88;87.99
75788;BME280;64406;50.024;14.492;2023-01-23T07:32:19;99634.00;;;-0.68;87.26
75788;BME280;64406;50.024;14.492;2023-01-23T07:34:45;99607.88;;;-0.63;86.72
75788;BME280;64406;50.024;14.492;2023-01-23T07:37:12;99621.94;;;-0.63;86.49
75788;BME280;64406;50.024;14.492;2023-01-23T07:39:37;99642.69;;;-0.43;86.25
75788;BME280;64406;50.024;14.492;2023-01-23T07:42:03;99636.19;;;-0.41;85.31
75788;BME280;64406;50.024;14.492;2023-01-23T07:44:30;99646.28;;;-0.36;85.49
75788;BME280;64406;50.024;14.492;2023-01-23T07:46:56;99636.53;;;-0.36;85.38
75788;BME280;64406;50.024;14.492;2023-01-23T07:49:22;99642.44;;;-0.34;85.27
75788;BME280;64406;50.024;14.492;2023-01-23T07:51:47;99638.66;;;-0.31;84.97
75788;BME280;64406;50.024;14.492;2023-01-23T07:54:14;99637.78;;;-0.23;84.62
75788;BME280;64406;50.024;14.492;2023-01-23T07:56:39;99636.25;;;-0.18;83.96
75788;BME280;64406;50.024;14.492;2023-01-23T07:59:05;99646.03;;;-0.18;83.50
75788;BME280;64406;50.024;14.492;2023-01-23T08:01:31;99649.63;;;-0.11;83.10
75788;BME280;64406;50.024;14.492;2023-01-23T08:03:56;99656.06;;;-0.14;83.68
75788;BME280;64406;50.024;14.492;2023-01-23T08:06:23;99662.38;;;-0.15;83.43
75788;BME280;64406;50.024;14.492;2023-01-23T08:08:49;99663.56;;;-0.17;84.00
75788;BME280;64406;50.024;14.492;2023-01-23T08:11:15;99667.91;;;-0.24;83.28
75788;BME280;64406;50.024;14.492;2023-01-23T08:13:41;99664.38;;;-0.17;83.69
75788;BME280;64406;50.024;14.492;2023-01-23T08:16:07;99660.41;;;-0.13;82.95
75788;BME280;64406;50.024;14.492;2023-01-23T08:18:33;99644.34;;;-0.11;82.76
75788;BME280;64406;50.024;14.492;2023-01-23T08:21:00;99658.81;;;0.01;82.76
75788;BME280;64406;50.024;14.492;2023-01-23T08:23:29;99665.78;;;0.02;82.63
75788;BME280;64406;50.024;14.492;2023-01-23T08:26:02;99671.66;;;0.12;82.27
75788;BME280;64406;50.024;14.492;2023-01-23T08:28:28;99659.34;;;-0.04;82.37
75788;BME280;64406;50.024;14.492;2023-01-23T08:30:54;99666.06;;;0.07;82.12
75788;BME280;64406;50.024;14.492;2023-01-23T08:33:20;99670.00;;;0.11;81.80
75788;BME280;64406;50.024;14.492;2023-01-23T08:35:50;99665.84;;;0.17;81.68
75788;BME280;64406;50.024;14.492;2023-01-23T08:38:33;99659.72;;;0.16;81.75
75788;BME280;64406;50.024;14.492;2023-01-23T08:41:00;99666.44;;;0.27;81.32
75788;BME280;64406;50.024;14.492;2023-01-23T08:43:26;99682.84;;;0.22;81.21
75788;BME280;64406;50.024;14.492;2023-01-23T08:45:55;99677.25;;;0.17;81.60
75788;BME280;64406;50.024;14.492;2023-01-23T08:48:23;99667.78;;;0.23;81.56
75788;BME280;64406;50.024;14.492;2023-01-23T08:50:51;99699.75;;;0.44;80.85
75788;BME280;64406;50.024;14.492;2023-01-23T08:53:17;99699.25;;;0.49;80.72
75788;BME280;64406;50.024;14.492;2023-01-23T08:55:43;99689.63;;;0.48;80.48
75788;BME280;64406;50.024;14.492;2023-01-23T08:58:09;99677.94;;;0.57;80.50
75788;BME280;64406;50.024;14.492;2023-01-23T09:00:38;99686.13;;;0.70;79.57
75788;BME280;64406;50.024;14.492;2023-01-23T09:03:03;99693.84;;;0.80;79.20
75788;BME280;64406;50.024;14.492;2023-01-23T09:05:30;99684.22;;;0.79;79.31
75788;BME280;64406;50.024;14.492;2023-01-23T09:07:57;99698.44;;;0.86;78.78
75788;BME280;64406;50.024;14.492;2023-01-23T09:10:24;99695.41;;;0.89;78.62
75788;BME280;64406;50.024;14.492;2023-01-23T09:12:53;99699.72;;;0.90;78.89
75788;BME280;64406;50.024;14.492;2023-01-23T09:15:20;99692.22;;;0.94;78.58
75788;BME280;64406;50.024;14.492;2023-01-23T09:17:48;99670.19;;;0.93;78.11
75788;BME280;64406;50.024;14.492;2023-01-23T09:20:15;99685.38;;;0.99;78.42
75788;BME280;64406;50.024;14.492;2023-01-23T09:22:41;99684.16;;;0.87;78.18
75788;BME280;64406;50.024;14.492;2023-01-23T09:25:07;99674.06;;;0.68;78.44
75788;BME280;64406;50.024;14.492;2023-01-23T09:27:33;99682.88;;;0.98;78.93
75788;BME280;64406;50.024;14.492;2023-01-23T09:29:58;99669.56;;;1.06;78.62
75788;BME280;64406;50.024;14.492;2023-01-23T09:32:24;99676.72;;;1.20;77.58
75788;BME280;64406;50.024;14.492;2023-01-23T09:34:50;99671.75;;;1.17;77.80
75788;BME280;64406;50.024;14.492;2023-01-23T09:37:16;99666.44;;;1.17;77.44
75788;BME280;64406;50.024;14.492;2023-01-23T09:39:42;99672.41;;;1.34;77.83
75788;BME280;64406;50.024;14.492;2023-01-23T09:42:16;99676.88;;;1.48;77.43
75788;BME280;64406;50.024;14.492;2023-01-23T09:45:00;99666.06;;;1.50;76.79
75788;BME280;64406;50.024;14.492;2023-01-23T09:47:43;99677.91;;;1.47;76.30
75788;BME280;64406;50.024;14.492;2023-01-23T09:50:24;99648.69;;;1.47;76.38
75788;BME280;64406;50.024;14.492;2023-01-23T09:53:12;99657.25;;;1.64;76.10
75788;BME280;64406;50.024;14.492;2023-01-23T09:58:36;99656.16;;;1.73;77.15
75788;BME280;64406;50.024;14.492;2023-01-23T10:01:10;99646.56;;;1.57;75.94
75788;BME280;64406;50.024;14.492;2023-01-23T10:03:36;99657.53;;;1.69;76.05
75788;BME280;64406;50.024;14.492;2023-01-23T10:11:56;99657.34;;;1.71;75.04
75788;BME280;64406;50.024;14.492;2023-01-23T10:14:47;99657.34;;;1.71;76.09
75788;BME280;64406;50.024;14.492;2023-01-23T10:20:18;99661.63;;;1.72;75.23
75788;BME280;64406;50.024;14.492;2023-01-23T10:23:13;99665.06;;;1.51;76.21
75788;BME280;64406;50.024;14.492;2023-01-23T10:25:44;99666.38;;;1.40;76.65
75788;BME280;64406;50.024;14.492;2023-01-23T10:28:37;99663.03;;;1.68;76.56
75788;BME280;64406;50.024;14.492;2023-01-23T10:36:29;99647.34;;;2.09;74.92
75788;BME280;64406;50.024;14.492;2023-01-23T10:39:26;99643.06;;;2.08;74.11
75788;BME280;64406;50.024;14.492;2023-01-23T10:41:54;99639.38;;;2.09;74.21
75788;BME280;64406;50.024;14.492;2023-01-23T10:44:20;99637.13;;;2.06;74.67
75788;BME280;64406;50.024;14.492;2023-01-23T10:46:47;99644.00;;;2.22;74.68
75788;BME280;64406;50.024;14.492;2023-01-23T10:49:46;99630.84;;;2.13;74.07
75788;BME280;64406;50.024;14.492;2023-01-23T10:54:54;99646.34;;;2.10;74.09
75788;BME280;64406;50.024;14.492;2023-01-23T10:57:26;99623.16;;;2.04;74.32
75788;BME280;64406;50.024;14.492;2023-01-23T10:59:57;99638.06;;;2.20;73.96
75788;BME280;64406;50.024;14.492;2023-01-23T11:02:31;99628.31;;;2.27;73.76
75788;BME280;64406;50.024;14.492;2023-01-23T11:04:58;99634.47;;;2.27;73.78
75788;BME280;64406;50.024;14.492;2023-01-23T11:07:31;99629.38;;;2.11;74.12
75788;BME280;64406;50.024;14.492;2023-01-23T11:10:17;99640.34;;;2.23;74.11
75788;BME280;64406;50.024;14.492;2023-01-23T11:12:51;99633.19;;;2.23;73.58
75788;BME280;64406;50.024;14.492;2023-01-23T11:15:27;99636.59;;;2.17;74.36
75788;BME280;64406;50.024;14.492;2023-01-23T11:17:58;99617.28;;;2.30;74.20
75788;BME280;64406;50.024;14.492;2023-01-23T11:20:36;99628.56;;;2.32;73.98
75788;BME280;64406;50.024;14.492;2023-01-23T11:23:14;99636.34;;;2.33;73.46
75788;BME280;64406;50.024;14.492;2023-01-23T11:25:43;99638.28;;;2.18;74.06
75788;BME280;64406;50.024;14.492;2023-01-23T11:28:22;99625.53;;;2.13;74.17
75788;BME280;64406;50.024;14.492;2023-01-23T11:30:54;99634.31;;;2.14;74.31
75788;BME280;64406;50.024;14.492;2023-01-23T11:33:38;99624.25;;;2.09;74.78
75788;BME280;64406;50.024;14.492;2023-01-23T11:38:46;99613.56;;;2.03;74.79
75788;BME280;64406;50.024;14.492;2023-01-23T11:41:14;99590.59;;;1.95;74.50
75788;BME280;64406;50.024;14.492;2023-01-23T11:43:40;99610.22;;;1.94;75.29
75788;BME280;64406;50.024;14.492;2023-01-23T11:54:21;99600.47;;;1.80;75.71
75788;BME280;64406;50.024;14.492;2023-01-23T11:59:59;99596.09;;;1.72;75.99
75788;BME280;64406;50.024;14.492;2023-01-23T12:02:52;99591.22;;;1.76;76.49
75788;BME280;64406;50.024;14.492;2023-01-23T12:08:32;99588.47;;;2.05;75.17
75788;BME280;64406;50.024;14.492;2023-01-23T12:11:17;99589.22;;;1.99;74.69
75788;BME280;64406;50.024;14.492;2023-01-23T12:13:59;99598.97;;;1.92;75.14
75788;BME280;64406;50.024;14.492;2023-01-23T12:16:51;99601.41;;;2.15;75.61
75788;BME280;64406;50.024;14.492;2023-01-23T12:19:48;99595.84;;;2.10;74.78
75788;BME280;64406;50.024;14.492;2023-01-23T12:27:49;99588.25;;;1.85;74.88
75788;BME280;64406;50.024;14.492;2023-01-23T12:36:15;99586.59;;;1.84;75.36
75788;BME280;64406;50.024;14.492;2023-01-23T12:41:58;99576.41;;;1.67;76.78
75788;BME280;64406;50.024;14.492;2023-01-23T12:47:38;99573.25;;;1.42;77.38
75788;BME280;64406;50.024;14.492;2023-01-23T12:53:02;99577.66;;;1.71;76.80
75788;BME280;64406;50.024;14.492;2023-01-23T12:58:15;99563.38;;;1.72;76.97
75788;BME280;64406;50.024;14.492;2023-01-23T13:01:11;99572.81;;;1.74;76.89
75788;BME280;64406;50.024;14.492;2023-01-23T13:03:54;99566.22;;;1.70;77.27
75788;BME280;64406;50.024;14.492;2023-01-23T13:10:03;99572.34;;;1.71;77.47
75788;BME280;64406;50.024;14.492;2023-01-23T13:12:30;99578.13;;;1.74;77.14
75788;BME280;64406;50.024;14.492;2023-01-23T13:17:48;99594.41;;;1.71;76.93
75788;BME280;64406;50.024;14.492;2023-01-23T13:23:21;99596.44;;;1.69;77.40
75788;BME280;64406;50.024;14.492;2023-01-23T13:25:48;99594.94;;;1.60;77.40
75788;BME280;64406;50.024;14.492;2023-01-23T13:28:33;99604.00;;;1.51;78.03
75788;BME280;64406;50.024;14.492;2023-01-23T13:31:01;99597.50;;;1.53;77.84
75788;BME280;64406;50.024;14.492;2023-01-23T13:35:53;99598.53;;;1.52;78.97
75788;BME280;64406;50.024;14.492;2023-01-23T13:49:07;99604.97;;;1.64;78.01
75788;BME280;64406;50.024;14.492;2023-01-23T13:52:01;99602.97;;;1.52;78.23
75788;BME280;64406;50.024;14.492;2023-01-23T13:54:48;99609.78;;;1.25;78.28
75788;BME280;64406;50.024;14.492;2023-01-23T13:57:32;99604.31;;;1.26;79.17
75788;BME280;64406;50.024;14.492;2023-01-23T14:00:00;99613.72;;;1.29;79.17
75788;BME280;64406;50.024;14.492;2023-01-23T14:02:35;99619.75;;;1.38;78.99
75788;BME280;64406;50.024;14.492;2023-01-23T14:05:30;99615.09;;;1.40;78.16
75788;BME280;64406;50.024;14.492;2023-01-23T14:08:02;99613.00;;;1.35;79.13
75788;BME280;64406;50.024;14.492;2023-01-23T14:10:35;99621.16;;;1.33;79.24
75788;BME280;64406;50.024;14.492;2023-01-23T14:13:03;99624.06;;;1.39;78.46
75788;BME280;64406;50.024;14.492;2023-01-23T14:15:30;99607.72;;;1.20;78.94
75788;BME280;64406;50.024;14.492;2023-01-23T14:18:31;99618.84;;;1.30;78.91
75788;BME280;64406;50.024;14.492;2023-01-23T14:21:13;99604.66;;;1.23;79.25
75788;BME280;64406;50.024;14.492;2023-01-23T14:23:40;99604.47;;;1.25;78.95
75788;BME280;64406;50.024;14.492;2023-01-23T14:26:12;99605.41;;;1.17;79.05
75788;BME280;64406;50.024;14.492;2023-01-23T14:28:49;99583.00;;;1.05;79.53
75788;BME280;64406;50.024;14.492;2023-01-23T14:31:21;99605.31;;;1.11;79.48
75788;BME280;64406;50.024;14.492;2023-01-23T14:33:48;99606.31;;;1.09;79.88
75788;BME280;64406;50.024;14.492;2023-01-23T14:36:15;99608.53;;;1.06;79.93
75788;BME280;64406;50.024;14.492;2023-01-23T14:38:44;99608.59;;;0.98;80.35